sensor_id;sensor_type;location;lat;lon;timestamp;P1;durP1;ratioP1;P2;durP2;ratioP2
16385;SDS011;8302;51.154;4.456;2023-04-06T00:01:08;3.47;;;1.90;;
16385;SDS011;8302;51.154;4.456;2023-04-06T00:03:36;2.53;;;2.30;;
16385;SDS011;8302;51.154;4.456;2023-04-06T00:06:04;2.60;;;1.88;;
16385;SDS011;8302;51.154;4.456;2023-04-06T00:08:32;4.07;;;2.17;;
16385;SDS011;8302;51.154;4.456;2023-04-06T00:11:00;5.72;;;2.17;;
16385;SDS011;8302;51.154;4.456;2023-04-06T00:13:28;5.20;;;2.28;;
16385;SDS011;8302;51.154;4.456;2023-04-06T00:15:57;5.32;;;2.53;;
16385;SDS011;8302;51.154;4.456;2023-04-06T00:18:24;3.20;;;1.67;;
16385;SDS011;8302;51.154;4.456;2023-04-06T00:20:52;5.35;;;2.38;;
16385;SDS011;8302;51.154;4.456;2023-04-06T00:23:20;3.28;;;2.05;;
16385;SDS011;8302;51.154;4.456;2023-04-06T00:25:48;4.30;;;2.28;;
16385;SDS011;8302;51.154;4.456;2023-04-06T00:28:16;3.20;;;2.60;;
16385;SDS011;8302;51.154;4.456;2023-04-06T00:30:44;3.35;;;1.77;;
16385;SDS011;8302;51.154;4.456;2023-04-06T00:33:13;5.88;;;2.17;;
16385;SDS011;8302;51.154;4.456;2023-04-06T00:35:40;2.60;;;2.00;;
16385;SDS011;8302;51.154;4.456;2023-04-06T00:38:08;3.42;;;2.00;;
16385;SDS011;8302;51.154;4.456;2023-04-06T00:40:36;4.10;;;1.98;;
16385;SDS011;8302;51.154;4.456;2023-04-06T00:43:05;2.53;;;1.95;;
16385;SDS011;8302;51.154;4.456;2023-04-06T00:45:33;5.68;;;2.33;;
16385;SDS011;8302;51.154;4.456;2023-04-06T00:48:01;3.03;;;1.98;;
16385;SDS011;8302;51.154;4.456;2023-04-06T00:50:31;4.93;;;2.75;;
16385;SDS011;8302;51.154;4.456;2023-04-06T00:52:59;5.30;;;1.80;;
16385;SDS011;8302;51.154;4.456;2023-04-06T00:55:27;2.63;;;2.22;;
16385;SDS011;8302;51.154;4.456;2023-04-06T00:57:56;2.97;;;2.22;;
16385;SDS011;8302;51.154;4.456;2023-04-06T01:00:26;4.20;;;1.95;;
16385;SDS011;8302;51.154;4.456;2023-04-06T01:02:57;6.43;;;2.05;;
16385;SDS011;8302;51.154;4.456;2023-04-06T01:05:35;5.95;;;2.00;;
16385;SDS011;8302;51.154;4.456;2023-04-06T01:08:12;3.10;;;1.80;;
16385;SDS011;8302;51.154;4.456;2023-04-06T01:10:41;4.03;;;2.40;;
16385;SDS011;8302;51.154;4.456;2023-04-06T01:13:18;9.10;;;2.05;;
16385;SDS011;8302;51.154;4.456;2023-04-06T01:15:51;4.32;;;2.15;;
16385;SDS011;8302;51.154;4.456;2023-04-06T01:18:26;1.88;;;1.63;;
16385;SDS011;8302;51.154;4.456;2023-04-06T01:21:09;3.28;;;1.98;;
16385;SDS011;8302;51.154;4.456;2023-04-06T01:23:56;2.85;;;2.03;;
16385;SDS011;8302;51.154;4.456;2023-04-06T01:26:31;9.35;;;2.60;;
16385;SDS011;8302;51.154;4.456;2023-04-06T01:29:03;3.78;;;2.00;;
16385;SDS011;8302;51.154;4.456;2023-04-06T01:31:31;4.07;;;1.70;;
16385;SDS011;8302;51.154;4.456;2023-04-06T01:33:59;3.45;;;2.45;;
16385;SDS011;8302;51.154;4.456;2023-04-06T01:36:27;5.07;;;2.03;;
16385;SDS011;8302;51.154;4.456;2023-04-06T01:39:06;2.65;;;1.85;;
16385;SDS011;8302;51.154;4.456;2023-04-06T01:41:37;4.47;;;2.15;;
16385;SDS011;8302;51.154;4.456;2023-04-06T01:44:05;4.00;;;1.85;;
16385;SDS011;8302;51.154;4.456;2023-04-06T01:46:33;2.45;;;1.67;;
16385;SDS011;8302;51.154;4.456;2023-04-06T01:49:03;2.67;;;1.85;;
16385;SDS011;8302;51.154;4.456;2023-04-06T01:51:34;3.03;;;1.98;;
16385;SDS011;8302;51.154;4.456;2023-04-06T01:54:06;4.00;;;2.10;;
16385;SDS011;8302;51.154;4.456;2023-04-06T01:56:44;4.28;;;2.08;;
16385;SDS011;8302;51.154;4.456;2023-04-06T01:59:29;2.45;;;1.50;;
16385;SDS011;8302;51.154;4.456;2023-04-06T02:02:01;4.15;;;1.63;;
16385;SDS011;8302;51.154;4.456;2023-04-06T02:04:30;3.58;;;2.00;;
16385;SDS011;8302;51.154;4.456;2023-04-06T02:07:07;2.55;;;2.08;;
16385;SDS011;8302;51.154;4.456;2023-04-06T02:09:37;2.80;;;1.98;;
16385;SDS011;8302;51.154;4.456;2023-04-06T02:12:09;2.35;;;1.63;;
16385;SDS011;8302;51.154;4.456;2023-04-06T02:14:37;2.20;;;1.75;;
16385;SDS011;8302;51.154;4.456;2023-04-06T02:17:05;3.47;;;2.00;;
16385;SDS011;8302;51.154;4.456;2023-04-06T02:19:33;3.42;;;1.75;;
16385;SDS011;8302;51.154;4.456;2023-04-06T02:22:01;2.03;;;1.50;;
16385;SDS011;8302;51.154;4.456;2023-04-06T02:24:29;3.22;;;1.40;;
16385;SDS011;8302;51.154;4.456;2023-04-06T02:26:58;3.33;;;2.38;;
16385;SDS011;8302;51.154;4.456;2023-04-06T02:29:26;2.53;;;1.70;;
16385;SDS011;8302;51.154;4.456;2023-04-06T02:31:54;3.28;;;2.00;;
16385;SDS011;8302;51.154;4.456;2023-04-06T02:34:22;1.65;;;1.42;;
16385;SDS011;8302;51.154;4.456;2023-04-06T02:36:51;2.42;;;1.50;;
16385;SDS011;8302;51.154;4.456;2023-04-06T02:39:19;4.70;;;2.08;;
16385;SDS011;8302;51.154;4.456;2023-04-06T02:41:46;3.17;;;1.88;;
16385;SDS011;8302;51.154;4.456;2023-04-06T02:44:21;4.20;;;1.92;;
16385;SDS011;8302;51.154;4.456;2023-04-06T02:46:49;2.70;;;1.70;;
16385;SDS011;8302;51.154;4.456;2023-04-06T02:49:17;3.47;;;2.13;;
16385;SDS011;8302;51.154;4.456;2023-04-06T02:51:44;2.45;;;1.67;;
16385;SDS011;8302;51.154;4.456;2023-04-06T02:54:23;2.90;;;1.88;;
16385;SDS011;8302;51.154;4.456;2023-04-06T02:56:51;2.58;;;2.15;;
16385;SDS011;8302;51.154;4.456;2023-04-06T02:59:24;2.10;;;1.40;;
16385;SDS011;8302;51.154;4.456;2023-04-06T03:02:01;3.30;;;1.83;;
16385;SDS011;8302;51.154;4.456;2023-04-06T03:04:29;4.47;;;1.73;;
16385;SDS011;8302;51.154;4.456;2023-04-06T03:06:59;2.83;;;1.70;;
16385;SDS011;8302;51.154;4.456;2023-04-06T03:09:37;2.58;;;1.63;;
16385;SDS011;8302;51.154;4.456;2023-04-06T03:12:05;3.97;;;1.98;;
16385;SDS011;8302;51.154;4.456;2023-04-06T03:14:53;2.30;;;1.77;;
16385;SDS011;8302;51.154;4.456;2023-04-06T03:17:21;2.60;;;1.65;;
16385;SDS011;8302;51.154;4.456;2023-04-06T03:19:49;4.20;;;2.50;;
16385;SDS011;8302;51.154;4.456;2023-04-06T03:22:17;3.85;;;1.65;;
16385;SDS011;8302;51.154;4.456;2023-04-06T03:24:46;3.58;;;2.15;;
16385;SDS011;8302;51.154;4.456;2023-04-06T03:27:14;2.03;;;1.35;;
16385;SDS011;8302;51.154;4.456;2023-04-06T03:29:44;2.50;;;1.42;;
16385;SDS011;8302;51.154;4.456;2023-04-06T03:32:18;3.05;;;1.75;;
16385;SDS011;8302;51.154;4.456;2023-04-06T03:34:45;2.75;;;1.75;;
16385;SDS011;8302;51.154;4.456;2023-04-06T03:37:13;4.07;;;1.65;;
16385;SDS011;8302;51.154;4.456;2023-04-06T03:39:46;2.75;;;1.75;;
16385;SDS011;8302;51.154;4.456;2023-04-06T03:42:19;3.35;;;1.48;;
16385;SDS011;8302;51.154;4.456;2023-04-06T03:44:55;4.88;;;2.10;;
16385;SDS011;8302;51.154;4.456;2023-04-06T03:47:25;1.40;;;1.08;;
16385;SDS011;8302;51.154;4.456;2023-04-06T03:49:56;2.30;;;1.90;;
16385;SDS011;8302;51.154;4.456;2023-04-06T03:52:24;3.17;;;1.98;;
16385;SDS011;8302;51.154;4.456;2023-04-06T03:54:52;2.22;;;1.65;;
16385;SDS011;8302;51.154;4.456;2023-04-06T03:57:20;3.17;;;1.92;;
16385;SDS011;8302;51.154;4.456;2023-04-06T03:59:48;1.85;;;1.33;;
16385;SDS011;8302;51.154;4.456;2023-04-06T04:02:16;3.42;;;1.55;;
16385;SDS011;8302;51.154;4.456;2023-04-06T04:04:45;3.03;;;2.00;;
16385;SDS011;8302;51.154;4.456;2023-04-06T04:07:13;1.75;;;1.60;;
16385;SDS011;8302;51.154;4.456;2023-04-06T04:09:40;2.42;;;1.40;;
16385;SDS011;8302;51.154;4.456;2023-04-06T04:12:08;2.28;;;1.60;;
16385;SDS011;8302;51.154;4.456;2023-04-06T04:14:36;5.50;;;1.63;;
16385;SDS011;8302;51.154;4.456;2023-04-06T04:17:03;3.15;;;1.95;;
16385;SDS011;8302;51.154;4.456;2023-04-06T04:19:31;2.75;;;1.30;;
16385;SDS011;8302;51.154;4.456;2023-04-06T04:22:00;3.22;;;1.23;;
16385;SDS011;8302;51.154;4.456;2023-04-06T04:24:33;5.53;;;1.80;;
16385;SDS011;8302;51.154;4.456;2023-04-06T04:27:01;5.43;;;1.45;;
16385;SDS011;8302;51.154;4.456;2023-04-06T04:29:31;2.80;;;1.77;;
16385;SDS011;8302;51.154;4.456;2023-04-06T04:32:03;3.38;;;2.00;;
16385;SDS011;8302;51.154;4.456;2023-04-06T04:34:31;2.60;;;1.70;;
16385;SDS011;8302;51.154;4.456;2023-04-06T04:37:02;2.47;;;1.60;;
16385;SDS011;8302;51.154;4.456;2023-04-06T04:39:50;6.18;;;2.10;;
16385;SDS011;8302;51.154;4.456;2023-04-06T04:42:17;2.45;;;1.65;;
16385;SDS011;8302;51.154;4.456;2023-04-06T04:44:49;3.20;;;1.65;;
16385;SDS011;8302;51.154;4.456;2023-04-06T04:47:29;1.73;;;1.35;;
16385;SDS011;8302;51.154;4.456;2023-04-06T04:49:57;2.25;;;1.67;;
16385;SDS011;8302;51.154;4.456;2023-04-06T04:52:26;3.20;;;1.27;;
16385;SDS011;8302;51.154;4.456;2023-04-06T04:55:09;3.25;;;1.27;;
16385;SDS011;8302;51.154;4.456;2023-04-06T04:57:36;1.67;;;1.58;;
16385;SDS011;8302;51.154;4.456;2023-04-06T05:00:05;5.05;;;1.70;;
16385;SDS011;8302;51.154;4.456;2023-04-06T05:02:35;4.25;;;2.03;;
16385;SDS011;8302;51.154;4.456;2023-04-06T05:05:13;2.28;;;1.75;;
16385;SDS011;8302;51.154;4.456;2023-04-06T05:07:43;1.92;;;1.70;;
16385;SDS011;8302;51.154;4.456;2023-04-06T05:10:22;1.70;;;1.30;;
16385;SDS011;8302;51.154;4.456;2023-04-06T05:12:57;1.30;;;1.02;;
16385;SDS011;8302;51.154;4.456;2023-04-06T05:15:26;3.63;;;1.92;;
16385;SDS011;8302;51.154;4.456;2023-04-06T05:18:00;2.45;;;2.13;;
16385;SDS011;8302;51.154;4.456;2023-04-06T05:20:31;0.90;;;0.80;;
16385;SDS011;8302;51.154;4.456;2023-04-06T05:23:01;4.47;;;1.83;;
16385;SDS011;8302;51.154;4.456;2023-04-06T05:25:29;1.65;;;1.52;;
16385;SDS011;8302;51.154;4.456;2023-04-06T05:28:05;2.63;;;1.25;;
16385;SDS011;8302;51.154;4.456;2023-04-06T05:30:36;4.55;;;1.60;;
16385;SDS011;8302;51.154;4.456;2023-04-06T05:33:04;1.52;;;1.42;;
16385;SDS011;8302;51.154;4.456;2023-04-06T05:35:48;2.75;;;1.83;;
16385;SDS011;8302;51.154;4.456;2023-04-06T05:38:18;1.05;;;0.90;;
16385;SDS011;8302;51.154;4.456;2023-04-06T05:40:46;2.85;;;1.80;;
16385;SDS011;8302;51.154;4.456;2023-04-06T05:43:17;2.38;;;1.70;;
16385;SDS011;8302;51.154;4.456;2023-04-06T05:45:52;3.53;;;2.05;;
16385;SDS011;8302;51.154;4.456;2023-04-06T05:48:20;2.10;;;1.60;;
16385;SDS011;8302;51.154;4.456;2023-04-06T05:50:48;2.45;;;1.48;;
16385;SDS011;8302;51.154;4.456;2023-04-06T05:53:21;3.08;;;1.65;;
16385;SDS011;8302;51.154;4.456;2023-04-06T05:55:55;2.17;;;1.50;;
16385;SDS011;8302;51.154;4.456;2023-04-06T05:58:23;1.73;;;1.30;;
16385;SDS011;8302;51.154;4.456;2023-04-06T06:00:56;4.13;;;1.83;;
16385;SDS011;8302;51.154;4.456;2023-04-06T06:03:24;4.03;;;1.95;;
16385;SDS011;8302;51.154;4.456;2023-04-06T06:05:59;3.05;;;1.45;;
16385;SDS011;8302;51.154;4.456;2023-04-06T06:08:34;2.53;;;1.90;;
16385;SDS011;8302;51.154;4.456;2023-04-06T06:11:09;4.95;;;1.50;;
16385;SDS011;8302;51.154;4.456;2023-04-06T06:13:36;3.88;;;2.30;;
16385;SDS011;8302;51.154;4.456;2023-04-06T06:16:05;2.28;;;1.90;;
16385;SDS011;8302;51.154;4.456;2023-04-06T06:18:37;2.65;;;1.42;;
16385;SDS011;8302;51.154;4.456;2023-04-06T06:21:06;2.45;;;1.83;;
16385;SDS011;8302;51.154;4.456;2023-04-06T06:23:36;2.50;;;1.90;;
16385;SDS011;8302;51.154;4.456;2023-04-06T06:26:04;3.60;;;2.20;;
16385;SDS011;8302;51.154;4.456;2023-04-06T06:28:32;4.07;;;1.75;;
16385;SDS011;8302;51.154;4.456;2023-04-06T06:31:00;6.15;;;1.88;;
16385;SDS011;8302;51.154;4.456;2023-04-06T06:33:29;2.85;;;1.67;;
16385;SDS011;8302;51.154;4.456;2023-04-06T06:35:57;2.38;;;1.27;;
16385;SDS011;8302;51.154;4.456;2023-04-06T06:38:26;3.17;;;1.85;;
16385;SDS011;8302;51.154;4.456;2023-04-06T06:40:55;3.85;;;1.75;;
16385;SDS011;8302;51.154;4.456;2023-04-06T06:43:26;2.42;;;1.63;;
16385;SDS011;8302;51.154;4.456;2023-04-06T06:45:58;4.50;;;2.10;;
16385;SDS011;8302;51.154;4.456;2023-04-06T06:48:26;2.63;;;1.50;;
16385;SDS011;8302;51.154;4.456;2023-04-06T06:50:53;6.13;;;1.95;;
16385;SDS011;8302;51.154;4.456;2023-04-06T06:53:22;2.83;;;1.45;;
16385;SDS011;8302;51.154;4.456;2023-04-06T06:55:50;2.50;;;1.80;;
16385;SDS011;8302;51.154;4.456;2023-04-06T06:58:19;3.38;;;1.83;;
16385;SDS011;8302;51.154;4.456;2023-04-06T07:00:47;4.10;;;1.88;;
16385;SDS011;8302;51.154;4.456;2023-04-06T07:03:15;2.90;;;2.25;;
16385;SDS011;8302;51.154;4.456;2023-04-06T07:05:45;3.65;;;1.83;;
16385;SDS011;8302;51.154;4.456;2023-04-06T07:08:15;2.47;;;1.70;;
16385;SDS011;8302;51.154;4.456;2023-04-06T07:10:43;3.30;;;1.80;;
16385;SDS011;8302;51.154;4.456;2023-04-06T07:13:13;2.67;;;2.10;;
16385;SDS011;8302;51.154;4.456;2023-04-06T07:15:46;5.15;;;2.13;;
16385;SDS011;8302;51.154;4.456;2023-04-06T07:18:13;4.80;;;2.25;;
16385;SDS011;8302;51.154;4.456;2023-04-06T07:20:41;3.03;;;2.42;;
16385;SDS011;8302;51.154;4.456;2023-04-06T07:23:09;4.60;;;1.88;;
16385;SDS011;8302;51.154;4.456;2023-04-06T07:25:38;3.40;;;1.70;;
16385;SDS011;8302;51.154;4.456;2023-04-06T07:28:08;5.07;;;1.90;;
16385;SDS011;8302;51.154;4.456;2023-04-06T07:30:37;4.13;;;2.28;;
16385;SDS011;8302;51.154;4.456;2023-04-06T07:33:06;2.92;;;2.05;;
16385;SDS011;8302;51.154;4.456;2023-04-06T07:35:35;5.05;;;2.05;;
16385;SDS011;8302;51.154;4.456;2023-04-06T07:38:04;2.45;;;1.77;;
16385;SDS011;8302;51.154;4.456;2023-04-06T07:40:33;1.90;;;1.70;;
16385;SDS011;8302;51.154;4.456;2023-04-06T07:43:02;3.75;;;1.83;;
16385;SDS011;8302;51.154;4.456;2023-04-06T07:45:30;4.38;;;1.98;;
16385;SDS011;8302;51.154;4.456;2023-04-06T07:47:59;3.90;;;2.05;;
16385;SDS011;8302;51.154;4.456;2023-04-06T07:50:30;2.53;;;2.05;;
16385;SDS011;8302;51.154;4.456;2023-04-06T07:52:57;2.33;;;1.70;;
16385;SDS011;8302;51.154;4.456;2023-04-06T07:55:26;3.17;;;2.25;;
16385;SDS011;8302;51.154;4.456;2023-04-06T07:57:54;1.67;;;1.08;;
16385;SDS011;8302;51.154;4.456;2023-04-06T08:00:22;3.45;;;1.83;;
16385;SDS011;8302;51.154;4.456;2023-04-06T08:02:49;4.15;;;2.03;;
16385;SDS011;8302;51.154;4.456;2023-04-06T08:05:17;2.42;;;1.67;;
16385;SDS011;8302;51.154;4.456;2023-04-06T08:07:47;4.75;;;2.05;;
16385;SDS011;8302;51.154;4.456;2023-04-06T08:10:14;2.67;;;1.38;;
16385;SDS011;8302;51.154;4.456;2023-04-06T08:12:42;2.15;;;1.42;;
16385;SDS011;8302;51.154;4.456;2023-04-06T08:15:10;3.08;;;1.42;;
16385;SDS011;8302;51.154;4.456;2023-04-06T08:17:37;2.50;;;1.40;;
16385;SDS011;8302;51.154;4.456;2023-04-06T08:20:06;2.00;;;1.50;;
16385;SDS011;8302;51.154;4.456;2023-04-06T08:22:34;0.98;;;0.73;;
16385;SDS011;8302;51.154;4.456;2023-04-06T08:25:03;2.67;;;1.45;;
16385;SDS011;8302;51.154;4.456;2023-04-06T08:27:31;2.65;;;1.48;;
16385;SDS011;8302;51.154;4.456;2023-04-06T08:29:58;1.77;;;1.25;;
16385;SDS011;8302;51.154;4.456;2023-04-06T08:32:26;1.75;;;1.42;;
16385;SDS011;8302;51.154;4.456;2023-04-06T08:34:54;3.20;;;1.50;;
16385;SDS011;8302;51.154;4.456;2023-04-06T08:37:22;1.88;;;1.20;;
16385;SDS011;8302;51.154;4.456;2023-04-06T08:39:50;1.92;;;1.33;;
16385;SDS011;8302;51.154;4.456;2023-04-06T08:42:20;4.63;;;1.30;;
16385;SDS011;8302;51.154;4.456;2023-04-06T08:44:48;3.80;;;1.30;;
16385;SDS011;8302;51.154;4.456;2023-04-06T08:47:17;3.78;;;1.75;;
16385;SDS011;8302;51.154;4.456;2023-04-06T08:49:49;2.35;;;1.48;;
16385;SDS011;8302;51.154;4.456;2023-04-06T08:52:18;5.05;;;1.80;;
16385;SDS011;8302;51.154;4.456;2023-04-06T08:54:46;2.47;;;1.80;;
16385;SDS011;8302;51.154;4.456;2023-04-06T08:57:14;2.42;;;1.73;;
16385;SDS011;8302;51.154;4.456;2023-04-06T08:59:44;1.90;;;1.35;;
16385;SDS011;8302;51.154;4.456;2023-04-06T09:02:13;3.08;;;1.73;;
16385;SDS011;8302;51.154;4.456;2023-04-06T09:04:44;6.05;;;1.92;;
16385;SDS011;8302;51.154;4.456;2023-04-06T09:07:13;2.58;;;1.40;;
16385;SDS011;8302;51.154;4.456;2023-04-06T09:09:41;3.50;;;1.77;;
16385;SDS011;8302;51.154;4.456;2023-04-06T09:12:21;2.35;;;1.35;;
16385;SDS011;8302;51.154;4.456;2023-04-06T09:14:51;4.20;;;1.60;;
16385;SDS011;8302;51.154;4.456;2023-04-06T09:17:22;2.17;;;1.60;;
16385;SDS011;8302;51.154;4.456;2023-04-06T09:19:50;2.58;;;1.40;;
16385;SDS011;8302;51.154;4.456;2023-04-06T09:22:18;2.30;;;1.38;;
16385;SDS011;8302;51.154;4.456;2023-04-06T09:24:46;1.63;;;1.25;;
16385;SDS011;8302;51.154;4.456;2023-04-06T09:27:14;3.25;;;1.30;;
16385;SDS011;8302;51.154;4.456;2023-04-06T09:29:42;1.83;;;1.30;;
16385;SDS011;8302;51.154;4.456;2023-04-06T09:32:11;1.70;;;1.40;;
16385;SDS011;8302;51.154;4.456;2023-04-06T09:34:42;2.03;;;1.42;;
16385;SDS011;8302;51.154;4.456;2023-04-06T09:37:16;2.75;;;1.52;;
16385;SDS011;8302;51.154;4.456;2023-04-06T09:39:45;2.78;;;1.48;;
16385;SDS011;8302;51.154;4.456;2023-04-06T09:42:22;2.08;;;1.30;;
16385;SDS011;8302;51.154;4.456;2023-04-06T09:44:50;1.60;;;1.25;;
16385;SDS011;8302;51.154;4.456;2023-04-06T09:47:19;2.13;;;1.30;;
16385;SDS011;8302;51.154;4.456;2023-04-06T09:49:54;1.33;;;1.00;;
16385;SDS011;8302;51.154;4.456;2023-04-06T09:52:23;3.55;;;1.70;;
16385;SDS011;8302;51.154;4.456;2023-04-06T09:54:51;5.85;;;0.90;;
16385;SDS011;8302;51.154;4.456;2023-04-06T09:57:21;1.27;;;1.10;;
16385;SDS011;8302;51.154;4.456;2023-04-06T09:59:54;2.80;;;1.70;;
16385;SDS011;8302;51.154;4.456;2023-04-06T10:02:28;2.05;;;1.50;;
16385;SDS011;8302;51.154;4.456;2023-04-06T10:05:02;2.90;;;1.05;;
16385;SDS011;8302;51.154;4.456;2023-04-06T10:07:30;1.23;;;0.98;;
16385;SDS011;8302;51.154;4.456;2023-04-06T10:09:58;1.83;;;1.25;;
16385;SDS011;8302;51.154;4.456;2023-04-06T10:12:26;1.58;;;1.10;;
16385;SDS011;8302;51.154;4.456;2023-04-06T10:14:54;1.52;;;1.02;;
16385;SDS011;8302;51.154;4.456;2023-04-06T10:17:23;1.00;;;0.90;;
16385;SDS011;8302;51.154;4.456;2023-04-06T10:19:53;1.05;;;0.95;;
16385;SDS011;8302;51.154;4.456;2023-04-06T10:22:24;2.17;;;1.33;;
16385;SDS011;8302;51.154;4.456;2023-04-06T10:24:52;1.13;;;0.77;;
16385;SDS011;8302;51.154;4.456;2023-04-06T10:27:27;1.73;;;1.05;;
16385;SDS011;8302;51.154;4.456;2023-04-06T10:29:54;1.88;;;1.13;;
16385;SDS011;8302;51.154;4.456;2023-04-06T10:32:31;1.45;;;1.02;;
16385;SDS011;8302;51.154;4.456;2023-04-06T10:35:06;2.38;;;1.05;;
16385;SDS011;8302;51.154;4.456;2023-04-06T10:37:45;0.85;;;0.80;;
16385;SDS011;8302;51.154;4.456;2023-04-06T10:40:20;2.15;;;1.10;;
16385;SDS011;8302;51.154;4.456;2023-04-06T10:42:49;0.77;;;0.77;;
16385;SDS011;8302;51.154;4.456;2023-04-06T10:45:21;1.40;;;1.00;;
16385;SDS011;8302;51.154;4.456;2023-04-06T10:47:49;2.58;;;1.42;;
16385;SDS011;8302;51.154;4.456;2023-04-06T10:50:18;2.85;;;1.13;;
16385;SDS011;8302;51.154;4.456;2023-04-06T10:52:46;1.33;;;0.90;;
16385;SDS011;8302;51.154;4.456;2023-04-06T10:55:14;1.25;;;1.15;;
16385;SDS011;8302;51.154;4.456;2023-04-06T10:57:41;1.00;;;0.88;;
16385;SDS011;8302;51.154;4.456;2023-04-06T11:00:10;1.52;;;1.30;;
16385;SDS011;8302;51.154;4.456;2023-04-06T11:02:38;1.85;;;1.30;;
16385;SDS011;8302;51.154;4.456;2023-04-06T11:05:07;1.30;;;0.80;;
16385;SDS011;8302;51.154;4.456;2023-04-06T11:07:36;1.42;;;1.08;;
16385;SDS011;8302;51.154;4.456;2023-04-06T11:10:04;1.77;;;1.20;;
16385;SDS011;8302;51.154;4.456;2023-04-06T11:12:44;1.75;;;1.05;;
16385;SDS011;8302;51.154;4.456;2023-04-06T11:15:12;1.27;;;0.73;;
16385;SDS011;8302;51.154;4.456;2023-04-06T11:17:40;2.00;;;0.98;;
16385;SDS011;8302;51.154;4.456;2023-04-06T11:20:09;1.92;;;1.30;;
16385;SDS011;8302;51.154;4.456;2023-04-06T11:22:48;1.42;;;0.95;;
16385;SDS011;8302;51.154;4.456;2023-04-06T11:25:16;1.80;;;1.05;;
16385;SDS011;8302;51.154;4.456;2023-04-06T11:27:44;2.53;;;1.00;;
16385;SDS011;8302;51.154;4.456;2023-04-06T11:30:12;1.60;;;1.10;;
16385;SDS011;8302;51.154;4.456;2023-04-06T11:32:40;2.20;;;1.23;;
16385;SDS011;8302;51.154;4.456;2023-04-06T11:35:13;2.40;;;1.10;;
16385;SDS011;8302;51.154;4.456;2023-04-06T11:37:46;1.33;;;1.20;;
16385;SDS011;8302;51.154;4.456;2023-04-06T11:40:19;1.08;;;0.82;;
16385;SDS011;8302;51.154;4.456;2023-04-06T11:42:51;1.27;;;1.10;;
16385;SDS011;8302;51.154;4.456;2023-04-06T11:45:19;1.23;;;1.02;;
16385;SDS011;8302;51.154;4.456;2023-04-06T11:47:55;2.38;;;1.33;;
16385;SDS011;8302;51.154;4.456;2023-04-06T11:50:23;2.03;;;1.15;;
16385;SDS011;8302;51.154;4.456;2023-04-06T11:52:57;1.88;;;1.10;;
16385;SDS011;8302;51.154;4.456;2023-04-06T11:55:27;1.83;;;1.17;;
16385;SDS011;8302;51.154;4.456;2023-04-06T11:57:58;3.50;;;1.13;;
16385;SDS011;8302;51.154;4.456;2023-04-06T12:00:26;1.17;;;0.98;;
16385;SDS011;8302;51.154;4.456;2023-04-06T12:02:54;1.30;;;1.10;;
16385;SDS011;8302;51.154;4.456;2023-04-06T12:05:22;2.30;;;1.40;;
16385;SDS011;8302;51.154;4.456;2023-04-06T12:07:51;1.95;;;1.10;;
16385;SDS011;8302;51.154;4.456;2023-04-06T12:10:18;1.67;;;1.20;;
16385;SDS011;8302;51.154;4.456;2023-04-06T12:12:48;2.15;;;1.38;;
16385;SDS011;8302;51.154;4.456;2023-04-06T12:15:15;2.10;;;1.30;;
16385;SDS011;8302;51.154;4.456;2023-04-06T12:17:43;1.20;;;0.90;;
16385;SDS011;8302;51.154;4.456;2023-04-06T12:20:11;1.50;;;1.27;;
16385;SDS011;8302;51.154;4.456;2023-04-06T12:22:52;1.75;;;1.50;;
16385;SDS011;8302;51.154;4.456;2023-04-06T12:25:20;1.95;;;1.33;;
16385;SDS011;8302;51.154;4.456;2023-04-06T12:27:49;1.30;;;1.20;;
16385;SDS011;8302;51.154;4.456;2023-04-06T12:30:16;2.58;;;1.30;;
16385;SDS011;8302;51.154;4.456;2023-04-06T12:32:44;2.08;;;1.38;;
16385;SDS011;8302;51.154;4.456;2023-04-06T12:35:16;0.95;;;0.80;;
16385;SDS011;8302;51.154;4.456;2023-04-06T12:37:44;1.63;;;1.33;;
16385;SDS011;8302;51.154;4.456;2023-04-06T12:40:12;2.33;;;1.42;;
16385;SDS011;8302;51.154;4.456;2023-04-06T12:42:41;1.30;;;1.20;;
16385;SDS011;8302;51.154;4.456;2023-04-06T12:45:10;1.88;;;1.30;;
16385;SDS011;8302;51.154;4.456;2023-04-06T12:47:38;1.90;;;1.25;;
16385;SDS011;8302;51.154;4.456;2023-04-06T12:50:06;3.10;;;1.55;;
16385;SDS011;8302;51.154;4.456;2023-04-06T12:52:34;1.80;;;1.27;;
16385;SDS011;8302;51.154;4.456;2023-04-06T12:55:03;2.15;;;0.90;;
16385;SDS011;8302;51.154;4.456;2023-04-06T12:57:31;2.33;;;1.05;;
16385;SDS011;8302;51.154;4.456;2023-04-06T12:59:59;1.88;;;1.13;;
16385;SDS011;8302;51.154;4.456;2023-04-06T13:02:29;2.58;;;1.60;;
16385;SDS011;8302;51.154;4.456;2023-04-06T13:04:57;1.63;;;1.15;;
16385;SDS011;8302;51.154;4.456;2023-04-06T13:07:25;2.33;;;1.30;;
16385;SDS011;8302;51.154;4.456;2023-04-06T13:09:53;1.45;;;1.30;;
16385;SDS011;8302;51.154;4.456;2023-04-06T13:12:20;1.65;;;1.30;;
16385;SDS011;8302;51.154;4.456;2023-04-06T13:14:48;2.40;;;1.15;;
16385;SDS011;8302;51.154;4.456;2023-04-06T13:17:18;2.15;;;1.35;;
16385;SDS011;8302;51.154;4.456;2023-04-06T13:19:48;2.60;;;1.15;;
16385;SDS011;8302;51.154;4.456;2023-04-06T13:22:16;1.77;;;1.25;;
16385;SDS011;8302;51.154;4.456;2023-04-06T13:24:44;1.40;;;1.30;;
16385;SDS011;8302;51.154;4.456;2023-04-06T13:27:12;1.50;;;0.90;;
16385;SDS011;8302;51.154;4.456;2023-04-06T13:29:40;0.93;;;0.90;;
16385;SDS011;8302;51.154;4.456;2023-04-06T13:32:07;2.78;;;1.20;;
16385;SDS011;8302;51.154;4.456;2023-04-06T13:34:36;1.67;;;0.90;;
16385;SDS011;8302;51.154;4.456;2023-04-06T13:37:05;0.88;;;0.82;;
16385;SDS011;8302;51.154;4.456;2023-04-06T13:39:33;2.10;;;1.10;;
16385;SDS011;8302;51.154;4.456;2023-04-06T13:42:01;2.42;;;1.20;;
16385;SDS011;8302;51.154;4.456;2023-04-06T13:44:29;1.73;;;1.33;;
16385;SDS011;8302;51.154;4.456;2023-04-06T13:46:57;1.02;;;0.93;;
16385;SDS011;8302;51.154;4.456;2023-04-06T13:49:25;1.50;;;1.15;;
16385;SDS011;8302;51.154;4.456;2023-04-06T13:51:53;2.15;;;1.13;;
16385;SDS011;8302;51.154;4.456;2023-04-06T13:54:22;2.53;;;1.25;;
16385;SDS011;8302;51.154;4.456;2023-04-06T13:56:49;2.30;;;1.20;;
16385;SDS011;8302;51.154;4.456;2023-04-06T13:59:18;0.88;;;0.82;;
16385;SDS011;8302;51.154;4.456;2023-04-06T14:01:46;2.08;;;1.27;;
16385;SDS011;8302;51.154;4.456;2023-04-06T14:04:14;0.88;;;0.82;;
16385;SDS011;8302;51.154;4.456;2023-04-06T14:06:44;1.27;;;0.82;;
16385;SDS011;8302;51.154;4.456;2023-04-06T14:09:11;2.47;;;1.05;;
16385;SDS011;8302;51.154;4.456;2023-04-06T14:11:40;1.02;;;0.93;;
16385;SDS011;8302;51.154;4.456;2023-04-06T14:14:08;1.33;;;0.98;;
16385;SDS011;8302;51.154;4.456;2023-04-06T14:16:35;1.15;;;0.95;;
16385;SDS011;8302;51.154;4.456;2023-04-06T14:19:03;1.40;;;1.00;;
16385;SDS011;8302;51.154;4.456;2023-04-06T14:21:31;2.17;;;1.50;;
16385;SDS011;8302;51.154;4.456;2023-04-06T14:23:58;1.92;;;1.70;;
16385;SDS011;8302;51.154;4.456;2023-04-06T14:26:27;0.90;;;0.85;;
16385;SDS011;8302;51.154;4.456;2023-04-06T14:28:56;1.33;;;1.00;;
16385;SDS011;8302;51.154;4.456;2023-04-06T14:31:24;1.42;;;1.20;;
16385;SDS011;8302;51.154;4.456;2023-04-06T14:33:52;1.92;;;0.95;;
16385;SDS011;8302;51.154;4.456;2023-04-06T14:36:20;1.50;;;1.02;;
16385;SDS011;8302;51.154;4.456;2023-04-06T14:38:48;0.95;;;0.80;;
16385;SDS011;8302;51.154;4.456;2023-04-06T14:41:15;2.20;;;1.05;;
16385;SDS011;8302;51.154;4.456;2023-04-06T14:43:44;1.10;;;1.00;;
16385;SDS011;8302;51.154;4.456;2023-04-06T14:46:14;1.15;;;1.00;;
16385;SDS011;8302;51.154;4.456;2023-04-06T14:48:42;1.77;;;1.20;;
16385;SDS011;8302;51.154;4.456;2023-04-06T14:51:09;1.77;;;1.10;;
16385;SDS011;8302;51.154;4.456;2023-04-06T14:53:37;0.60;;;0.60;;
16385;SDS011;8302;51.154;4.456;2023-04-06T14:56:05;1.10;;;0.85;;
16385;SDS011;8302;51.154;4.456;2023-04-06T14:58:33;2.05;;;1.10;;
16385;SDS011;8302;51.154;4.456;2023-04-06T15:01:01;1.40;;;1.30;;
16385;SDS011;8302;51.154;4.456;2023-04-06T15:03:30;2.67;;;1.33;;
16385;SDS011;8302;51.154;4.456;2023-04-06T15:05:58;1.17;;;1.02;;
16385;SDS011;8302;51.154;4.456;2023-04-06T15:08:26;2.17;;;1.20;;
16385;SDS011;8302;51.154;4.456;2023-04-06T15:10:53;1.75;;;1.17;;
16385;SDS011;8302;51.154;4.456;2023-04-06T15:13:22;1.70;;;1.23;;
16385;SDS011;8302;51.154;4.456;2023-04-06T15:15:50;1.08;;;0.80;;